Time;durP1;ratioP1;P1;durP2;ratioP2;P2;SDS_P1;SDS_P2;PMS_P1;PMS_P2;Temp;Humidity;BMP_temperature;BMP_pressure;BME280_temperature;BME280_humidity;BME280_pressure;Samples;Min_cycle;Max_cycle;Signal;HPM_P1;HPM_P2
2024/01/09 00:00:22;;;;;;;;;;;;;;;-5.58;59.55;100690.72;6289460;28;19920;-75
2024/01/09 00:03:23;;;;;;;;;;;;;;;-5.37;59.24;100688.50;6283690;28;20019;-75
2024/01/09 00:06:24;;;;;;;;;;;;;;;-5.35;59.51;100686.84;6289192;28;19991;-75
2024/01/09 00:09:25;;;;;;;;;;;;;;;-5.27;60.34;100687.81;6289655;28;19920;-75
2024/01/09 00:12:25;;;;;;;;;;;;;;;-5.20;59.97;100691.28;6287484;28;19921;-70
2024/01/09 00:15:26;;;;;;;;;;;;;;;-5.37;59.46;100690.19;6286955;28;20270;-70
2024/01/09 00:18:29;;;;;;;;;;;;;;;-5.48;60.26;100692.56;6298615;28;19924;-75
2024/01/09 00:21:30;;;;;;;;;;;;;;;-5.29;60.31;100694.56;6296437;28;19998;-75
2024/01/09 00:24:31;;;;;;;;;;;;;;;-5.55;59.97;100700.97;6275884;28;20433;-74
2024/01/09 00:27:31;;;;;;;;;;;;;;;-5.43;60.07;100703.69;6288943;28;20027;-75
2024/01/09 00:30:32;;;;;;;;;;;;;;;-5.26;60.85;100699.66;6278340;28;19924;-74
2024/01/09 00:33:33;;;;;;;;;;;;;;;-5.30;59.91;100709.78;6294843;28;19989;-75
2024/01/09 00:36:33;;;;;;;;;;;;;;;-5.36;59.94;100707.16;6273250;28;19966;-75
2024/01/09 00:39:34;;;;;;;;;;;;;;;-5.31;59.53;100703.84;6288955;28;19927;-75
2024/01/09 00:42:35;;;;;;;;;;;;;;;-5.40;59.05;100716.44;6293968;28;19927;-75
2024/01/09 00:45:36;;;;;;;;;;;;;;;-5.37;60.35;100726.66;6274217;28;19949;-75
2024/01/09 00:48:37;;;;;;;;;;;;;;;-5.33;60.35;100723.34;6298334;28;19920;-75
2024/01/09 00:51:38;;;;;;;;;;;;;;;-5.47;59.26;100729.91;6292630;28;20419;-74
2024/01/09 00:54:41;;;;;;;;;;;;;;;-5.49;59.54;100732.41;6279440;28;19921;-70
2024/01/09 00:57:41;;;;;;;;;;;;;;;-5.47;59.23;100738.38;6273226;28;19925;-70
2024/01/09 01:00:42;;;;;;;;;;;;;;;-5.42;59.03;100742.69;6291049;28;19924;-69
2024/01/09 01:03:43;;;;;;;;;;;;;;;-5.37;59.61;100746.16;6328909;28;20330;-69
2024/01/09 01:06:45;;;;;;;;;;;;;;;-5.48;59.09;100748.53;6273087;28;20434;-69
2024/01/09 01:09:46;;;;;;;;;;;;;;;-5.47;59.18;100742.63;6272928;28;19927;-70
2024/01/09 01:12:47;;;;;;;;;;;;;;;-5.57;59.41;100746.69;6281957;28;20280;-69
2024/01/09 01:15:48;;;;;;;;;;;;;;;-5.43;58.74;100751.16;6297566;28;19981;-70
2024/01/09 01:18:50;;;;;;;;;;;;;;;-5.46;59.72;100744.31;6293208;28;20377;-69
2024/01/09 01:21:52;;;;;;;;;;;;;;;-5.38;59.56;100770.72;6289139;28;20361;-70
2024/01/09 01:24:53;;;;;;;;;;;;;;;-5.45;58.58;100757.91;6297336;28;20438;-74
2024/01/09 01:27:53;;;;;;;;;;;;;;;-5.42;58.68;100760.47;6297596;28;19921;-69
2024/01/09 01:30:54;;;;;;;;;;;;;;;-5.36;59.35;100771.59;6297313;28;19921;-74
2024/01/09 01:33:55;;;;;;;;;;;;;;;-5.51;58.67;100767.13;6297426;28;19921;-74
2024/01/09 01:36:56;;;;;;;;;;;;;;;-5.45;58.17;100779.09;6290056;28;19921;-74
2024/01/09 01:39:57;;;;;;;;;;;;;;;-5.31;59.05;100782.72;6295351;28;20404;-69
2024/01/09 01:42:57;;;;;;;;;;;;;;;-5.38;58.58;100785.13;6288166;28;19924;-70
2024/01/09 01:45:58;;;;;;;;;;;;;;;-5.46;58.58;100787.56;6283290;28;19927;-70
2024/01/09 01:48:59;;;;;;;;;;;;;;;-5.42;58.79;100793.56;6329794;28;20402;-70
2024/01/09 01:52:00;;;;;;;;;;;;;;;-5.40;58.76;100797.81;6287670;28;19924;-70
2024/01/09 01:55:01;;;;;;;;;;;;;;;-5.33;58.99;100796.25;6289342;28;20381;-70
2024/01/09 01:58:04;;;;;;;;;;;;;;;-5.70;58.54;100799.03;6271940;28;19978;-71
2024/01/09 02:01:05;;;;;;;;;;;;;;;-5.50;58.03;100796.84;6278837;28;19920;-75
2024/01/09 02:04:07;;;;;;;;;;;;;;;-5.47;58.66;100796.88;6296596;28;19921;-75
2024/01/09 02:07:08;;;;;;;;;;;;;;;-5.44;58.85;100808.78;6295507;28;20293;-75
2024/01/09 02:10:09;;;;;;;;;;;;;;;-5.52;58.33;100815.44;6296809;28;19970;-74
2024/01/09 02:13:09;;;;;;;;;;;;;;;-5.57;58.89;100811.97;6292313;28;19928;-75
2024/01/09 02:16:10;;;;;;;;;;;;;;;-5.75;58.61;100815.88;6292181;28;19921;-75
2024/01/09 02:19:11;;;;;;;;;;;;;;;-5.60;58.37;100815.31;6287699;28;20049;-75
2024/01/09 02:22:13;;;;;;;;;;;;;;;-5.56;58.07;100814.53;6290967;28;20384;-75
2024/01/09 02:25:14;;;;;;;;;;;;;;;-5.68;58.74;100830.44;6281873;28;19975;-75
2024/01/09 02:28:36;;;;;;;;;;;;;;;-5.67;59.11;100833.81;6289543;28;19945;-74
2024/01/09 02:31:37;;;;;;;;;;;;;;;-5.62;58.50;100829.69;6292608;28;20319;-70
2024/01/09 02:34:39;;;;;;;;;;;;;;;-5.52;58.75;100830.69;6279085;28;20322;-71
2024/01/09 02:37:40;;;;;;;;;;;;;;;-5.58;58.71;100828.91;6293347;28;19920;-70
2024/01/09 02:40:40;;;;;;;;;;;;;;;-5.40;58.46;100830.88;6293328;28;19928;-75
2024/01/09 02:43:41;;;;;;;;;;;;;;;-5.70;58.92;100832.09;6295906;28;19942;-75
2024/01/09 02:46:42;;;;;;;;;;;;;;;-5.61;59.00;100839.03;6301820;28;20377;-75
2024/01/09 02:49:43;;;;;;;;;;;;;;;-5.68;58.23;100834.66;6282262;28;20002;-75
2024/01/09 02:52:44;;;;;;;;;;;;;;;-5.85;59.14;100833.50;6274016;28;19921;-75
2024/01/09 02:55:45;;;;;;;;;;;;;;;-5.55;58.30;100856.94;6271098;28;19981;-75
2024/01/09 02:58:45;;;;;;;;;;;;;;;-5.53;58.81;100857.81;6271040;28;20423;-75
2024/01/09 03:01:46;;;;;;;;;;;;;;;-5.56;58.54;100857.78;6271434;28;19921;-71
2024/01/09 03:04:46;;;;;;;;;;;;;;;-5.67;58.67;100870.28;6279650;28;20294;-70
2024/01/09 03:07:47;;;;;;;;;;;;;;;-5.78;58.42;100851.44;6299323;28;19975;-70
2024/01/09 03:10:48;;;;;;;;;;;;;;;-5.54;58.41;100868.81;6288586;28;19982;-70
2024/01/09 03:13:49;;;;;;;;;;;;;;;-5.48;58.50;100865.50;6284286;28;19924;-70
2024/01/09 03:16:50;;;;;;;;;;;;;;;-5.80;59.08;100883.59;6284341;28;19927;-74
2024/01/09 03:19:50;;;;;;;;;;;;;;;-5.66;58.68;100871.16;6299821;28;19920;-74
2024/01/09 03:22:51;;;;;;;;;;;;;;;-5.59;59.35;100882.28;6285882;28;19921;-74
2024/01/09 03:25:52;;;;;;;;;;;;;;;-5.73;58.72;100879.47;6288781;28;19970;-75
2024/01/09 03:28:53;;;;;;;;;;;;;;;-5.74;58.97;100881.16;6280878;28;19929;-75
2024/01/09 03:31:54;;;;;;;;;;;;;;;-5.80;57.85;100893.75;6282617;28;19920;-70
2024/01/09 03:34:54;;;;;;;;;;;;;;;-5.59;58.94;100895.00;6298711;28;19947;-69
2024/01/09 03:37:55;;;;;;;;;;;;;;;-5.68;58.29;100890.59;6300913;28;19927;-69
2024/01/09 03:40:56;;;;;;;;;;;;;;;-5.72;57.62;100892.22;6295409;28;19920;-69
2024/01/09 03:43:56;;;;;;;;;;;;;;;-5.53;58.72;100903.59;6276032;28;20447;-74
2024/01/09 03:46:57;;;;;;;;;;;;;;;-5.57;58.46;100906.06;6275828;28;20018;-75
2024/01/09 03:49:58;;;;;;;;;;;;;;;-5.72;58.25;100912.56;6276261;28;19920;-74
2024/01/09 03:52:58;;;;;;;;;;;;;;;-5.93;58.38;100914.69;6288247;28;20019;-69
2024/01/09 03:55:59;;;;;;;;;;;;;;;-5.77;58.09;100909.06;6280592;28;19921;-70
2024/01/09 03:59:00;;;;;;;;;;;;;;;-5.77;58.71;100923.47;6274274;28;19921;-69
2024/01/09 04:02:00;;;;;;;;;;;;;;;-5.87;58.42;100928.38;6274196;28;19921;-69
2024/01/09 04:05:01;;;;;;;;;;;;;;;-5.74;58.94;100929.47;6275088;28;20403;-74
2024/01/09 04:08:02;;;;;;;;;;;;;;;-5.94;59.05;100912.97;6297687;28;19977;-74
2024/01/09 04:11:03;;;;;;;;;;;;;;;-5.89;58.54;100924.97;6293263;28;19976;-74
2024/01/09 04:14:07;;;;;;;;;;;;;;;-5.96;58.50;100929.91;6274242;28;19925;-69
2024/01/09 04:17:08;;;;;;;;;;;;;;;-5.99;58.00;100937.44;6276795;28;19921;-70
2024/01/09 04:20:12;;;;;;;;;;;;;;;-5.92;57.15;100937.59;6274008;28;19927;-70
2024/01/09 04:23:12;;;;;;;;;;;;;;;-6.08;58.48;100930.50;6273341;28;19921;-70
2024/01/09 04:26:15;;;;;;;;;;;;;;;-6.18;58.41;100944.69;6314683;28;19935;-70
2024/01/09 04:29:16;;;;;;;;;;;;;;;-6.13;58.24;100939.72;6284789;28;19920;-70
2024/01/09 04:32:17;;;;;;;;;;;;;;;-5.95;58.39;100941.78;6276137;28;19924;-70
2024/01/09 04:35:18;;;;;;;;;;;;;;;-6.07;57.46;100947.47;6305900;28;19920;-70
2024/01/09 04:38:19;;;;;;;;;;;;;;;-6.18;58.60;100944.69;6273332;28;19958;-70
2024/01/09 04:41:19;;;;;;;;;;;;;;;-6.01;58.29;100964.53;6306914;28;19928;-69
2024/01/09 04:44:20;;;;;;;;;;;;;;;-6.28;58.23;100956.34;6279029;28;19928;-69
2024/01/09 04:47:21;;;;;;;;;;;;;;;-6.17;57.73;100965.91;6288372;28;20016;-69
2024/01/09 04:50:22;;;;;;;;;;;;;;;-6.20;58.36;100979.38;6274799;28;19925;-69
2024/01/09 04:53:25;;;;;;;;;;;;;;;-6.33;58.41;100988.41;6276961;28;19947;-69
2024/01/09 04:56:26;;;;;;;;;;;;;;;-6.50;58.89;100993.09;6305025;28;19986;-69
2024/01/09 04:59:26;;;;;;;;;;;;;;;-6.37;59.31;100980.69;6277669;28;20027;-69
2024/01/09 05:02:27;;;;;;;;;;;;;;;-6.61;58.03;100992.00;6283630;28;19920;-69
2024/01/09 05:05:30;;;;;;;;;;;;;;;-6.46;58.53;100988.97;6277717;28;19928;-69
2024/01/09 05:08:31;;;;;;;;;;;;;;;-6.31;59.36;100996.06;6306343;28;19924;-69
2024/01/09 05:11:32;;;;;;;;;;;;;;;-6.37;58.60;101006.09;6278795;28;19924;-69
2024/01/09 05:14:33;;;;;;;;;;;;;;;-6.61;59.93;101013.97;6298635;28;19920;-69
2024/01/09 05:17:35;;;;;;;;;;;;;;;-6.64;58.98;101019.84;6298349;28;19927;-74
2024/01/09 05:20:36;;;;;;;;;;;;;;;-6.62;59.29;101019.88;6291861;28;19962;-74
2024/01/09 05:23:37;;;;;;;;;;;;;;;-6.66;59.56;101020.63;6297920;28;20272;-74
2024/01/09 05:26:38;;;;;;;;;;;;;;;-6.60;59.62;101030.94;6280857;28;19920;-74
2024/01/09 05:29:39;;;;;;;;;;;;;;;-6.64;60.12;101030.00;6272804;28;20015;-74
2024/01/09 05:32:40;;;;;;;;;;;;;;;-6.70;60.40;101033.22;6295600;28;19958;-74
2024/01/09 05:35:40;;;;;;;;;;;;;;;-6.59;59.30;101047.88;6287089;28;20439;-74
2024/01/09 05:38:41;;;;;;;;;;;;;;;-6.71;59.71;101045.91;6272211;28;20345;-74
2024/01/09 05:41:42;;;;;;;;;;;;;;;-6.68;59.64;101053.59;6272566;28;19920;-74
2024/01/09 05:44:42;;;;;;;;;;;;;;;-6.79;59.65;101050.78;6274844;28;19928;-74
2024/01/09 05:47:43;;;;;;;;;;;;;;;-6.51;60.10;101054.84;6272478;28;19928;-74
2024/01/09 05:50:44;;;;;;;;;;;;;;;-6.64;60.81;101055.38;6296756;28;19920;-74
2024/01/09 05:53:47;;;;;;;;;;;;;;;-6.62;60.86;101063.03;6292568;28;19965;-73
2024/01/09 05:56:48;;;;;;;;;;;;;;;-6.70;59.74;101063.69;6289037;28;19927;-69
2024/01/09 05:59:49;;;;;;;;;;;;;;;-6.74;61.08;101071.19;6274969;28;19982;-69
2024/01/09 06:02:51;;;;;;;;;;;;;;;-6.72;59.91;101079.72;6272923;28;19921;-70
2024/01/09 06:05:52;;;;;;;;;;;;;;;-6.95;59.33;101076.56;6270988;28;20031;-69
2024/01/09 06:08:52;;;;;;;;;;;;;;;-6.69;60.04;101084.88;6281500;28;20260;-69
2024/01/09 06:11:53;;;;;;;;;;;;;;;-6.87;60.39;101075.09;6288692;28;19928;-70
2024/01/09 06:14:54;;;;;;;;;;;;;;;-6.65;59.55;101078.19;6276777;28;19966;-69
2024/01/09 06:17:55;;;;;;;;;;;;;;;-6.70;59.16;101093.31;6270717;28;19923;-69
2024/01/09 06:20:55;;;;;;;;;;;;;;;-6.63;58.63;101097.72;6294404;28;19920;-69
2024/01/09 06:23:56;;;;;;;;;;;;;;;-6.68;58.52;101097.59;6290917;28;20364;-70
2024/01/09 06:26:57;;;;;;;;;;;;;;;-6.77;59.38;101096.50;6295501;28;20442;-70
2024/01/09 06:29:58;;;;;;;;;;;;;;;-6.63;58.98;101095.19;6296584;28;19928;-69
2024/01/09 06:32:59;;;;;;;;;;;;;;;-6.68;58.81;101101.81;6296276;28;19920;-69
2024/01/09 06:36:00;;;;;;;;;;;;;;;-6.60;57.93;101102.03;6295114;28;19920;-69
2024/01/09 06:39:01;;;;;;;;;;;;;;;-6.77;58.81;101114.28;6300549;28;19928;-69
2024/01/09 06:42:01;;;;;;;;;;;;;;;-6.69;57.51;101120.41;6301539;28;19920;-70
2024/01/09 06:45:02;;;;;;;;;;;;;;;-6.58;57.89;101129.16;6300388;28;19947;-71
2024/01/09 06:48:03;;;;;;;;;;;;;;;-6.63;58.62;101127.31;6301149;28;19921;-70
2024/01/09 06:51:04;;;;;;;;;;;;;;;-6.46;57.16;101133.72;6299953;28;19924;-70
2024/01/09 06:54:05;;;;;;;;;;;;;;;-6.57;56.79;101135.97;6300908;28;19967;-70
2024/01/09 06:57:06;;;;;;;;;;;;;;;-6.50;57.24;101139.53;6300772;28;19927;-70
2024/01/09 07:00:07;;;;;;;;;;;;;;;-6.65;57.02;101137.47;6300631;28;19949;-70
2024/01/09 07:03:08;;;;;;;;;;;;;;;-6.45;57.01;101137.09;6300624;28;19920;-70
2024/01/09 07:06:09;;;;;;;;;;;;;;;-6.56;57.15;101142.75;6299440;28;20971;-70
2024/01/09 07:09:12;;;;;;;;;;;;;;;-6.50;56.40;101145.47;6300541;28;20019;-70
2024/01/09 07:12:16;;;;;;;;;;;;;;;-6.37;55.96;101140.69;6299669;28;20007;-71
2024/01/09 07:15:17;;;;;;;;;;;;;;;-6.32;56.66;101134.91;6301042;28;19921;-70
2024/01/09 07:18:22;;;;;;;;;;;;;;;-6.30;56.67;101155.25;6300399;28;19956;-70
2024/01/09 07:21:22;;;;;;;;;;;;;;;-6.03;55.94;101144.94;6298959;28;20376;-70
2024/01/09 07:24:23;;;;;;;;;;;;;;;-6.15;55.80;101157.34;6300291;28;19925;-70
2024/01/09 07:27:24;;;;;;;;;;;;;;;-6.10;54.60;101151.53;6298680;28;19928;-70
2024/01/09 07:30:24;;;;;;;;;;;;;;;-5.86;54.28;101163.09;6332675;28;19990;-70
2024/01/09 07:33:25;;;;;;;;;;;;;;;-5.90;54.10;101162.16;6299504;28;19920;-70
2024/01/09 07:36:26;;;;;;;;;;;;;;;-5.82;53.95;101180.13;6300354;28;19963;-70
2024/01/09 07:39:26;;;;;;;;;;;;;;;-5.58;52.63;101181.50;6299695;28;19928;-70
2024/01/09 07:42:27;;;;;;;;;;;;;;;-5.32;53.29;101200.78;6300191;28;19927;-70
2024/01/09 07:45:31;;;;;;;;;;;;;;;-5.53;52.98;101192.66;6300348;28;19974;-70
2024/01/09 07:48:31;;;;;;;;;;;;;;;-5.39;52.82;101195.53;6299405;28;19920;-71
2024/01/09 07:51:34;;;;;;;;;;;;;;;-5.41;52.02;101194.66;6299654;28;19927;-69
2024/01/09 07:54:35;;;;;;;;;;;;;;;-5.20;52.44;101207.81;6299465;28;19922;-70
2024/01/09 07:57:36;;;;;;;;;;;;;;;-5.17;51.70;101217.19;6299655;28;19927;-70
2024/01/09 08:00:37;;;;;;;;;;;;;;;-4.84;51.44;101206.00;6299179;28;19949;-70
2024/01/09 08:03:40;;;;;;;;;;;;;;;-4.82;50.98;101227.28;6299559;28;19927;-70
2024/01/09 08:06:41;;;;;;;;;;;;;;;-4.50;50.51;101223.69;6299436;28;19974;-71
2024/01/09 08:09:41;;;;;;;;;;;;;;;-4.46;50.47;101230.56;6299163;28;19973;-70
2024/01/09 08:12:42;;;;;;;;;;;;;;;-4.35;50.51;101233.31;6299054;28;19931;-70
2024/01/09 08:15:45;;;;;;;;;;;;;;;-4.08;50.07;101242.28;6299088;28;19924;-70
2024/01/09 08:18:48;;;;;;;;;;;;;;;-4.09;49.97;101243.13;6297657;28;20299;-70
2024/01/09 08:21:51;;;;;;;;;;;;;;;-3.93;49.30;101242.56;6298916;28;19925;-71
2024/01/09 08:24:53;;;;;;;;;;;;;;;-3.81;48.77;101249.56;6299064;28;19931;-70
2024/01/09 08:27:54;;;;;;;;;;;;;;;-3.73;48.57;101255.63;6298650;28;20294;-71
2024/01/09 08:30:54;;;;;;;;;;;;;;;-4.02;48.54;101255.16;6331464;28;19926;-70
2024/01/09 08:33:55;;;;;;;;;;;;;;;-3.66;48.61;101264.28;6298691;28;19927;-71
2024/01/09 08:36:56;;;;;;;;;;;;;;;-3.20;47.51;101272.63;6298625;28;19927;-71
2024/01/09 08:39:57;;;;;;;;;;;;;;;-3.25;47.45;101275.13;6298715;28;20121;-71
2024/01/09 08:42:57;;;;;;;;;;;;;;;-2.90;47.05;101274.78;6298660;28;19920;-70
2024/01/09 08:45:58;;;;;;;;;;;;;;;-3.22;46.46;101276.00;6297311;28;19958;-71
2024/01/09 08:49:00;;;;;;;;;;;;;;;-2.81;46.15;101275.75;6298448;28;19920;-70
2024/01/09 08:52:01;;;;;;;;;;;;;;;-2.79;46.46;101292.81;6298214;28;19960;-70
2024/01/09 08:55:03;;;;;;;;;;;;;;;-2.60;45.64;101282.81;6297080;28;20417;-71
2024/01/09 08:58:04;;;;;;;;;;;;;;;-2.48;45.82;101288.09;6296979;28;20061;-75
2024/01/09 09:01:04;;;;;;;;;;;;;;;-2.51;45.14;101285.47;6297247;28;19920;-75
2024/01/09 09:04:05;;;;;;;;;;;;;;;-2.41;45.21;101297.53;6297787;28;19948;-75
2024/01/09 09:07:06;;;;;;;;;;;;;;;-2.46;44.64;101294.09;6297795;28;19944;-75
2024/01/09 09:10:08;;;;;;;;;;;;;;;-2.56;44.63;101284.59;6296717;28;19926;-74
2024/01/09 09:13:09;;;;;;;;;;;;;;;-2.31;44.46;101294.25;6296504;28;19920;-75
2024/01/09 09:16:10;;;;;;;;;;;;;;;-2.34;44.41;101289.13;6296401;28;19990;-75
2024/01/09 09:19:11;;;;;;;;;;;;;;;-2.47;44.36;101298.34;6296160;28;20300;-75
2024/01/09 09:22:12;;;;;;;;;;;;;;;-2.17;44.44;101288.44;6296144;28;19920;-75
2024/01/09 09:25:13;;;;;;;;;;;;;;;-1.97;43.73;101291.22;6297529;28;19920;-75
2024/01/09 09:28:14;;;;;;;;;;;;;;;-1.91;43.94;101291.28;6297487;28;19928;-75
2024/01/09 09:31:15;;;;;;;;;;;;;;;-2.07;43.07;101285.16;6296033;28;20710;-75
2024/01/09 09:34:16;;;;;;;;;;;;;;;-2.01;43.11;101294.59;6297179;28;19920;-75
2024/01/09 09:37:19;;;;;;;;;;;;;;;-1.77;42.91;101301.63;6296121;28;19927;-75
2024/01/09 09:40:20;;;;;;;;;;;;;;;-1.26;43.00;101297.81;6295687;28;19970;-75
2024/01/09 09:43:24;;;;;;;;;;;;;;;-1.28;42.36;101300.34;6297222;28;19920;-75
2024/01/09 09:46:26;;;;;;;;;;;;;;;-1.49;42.27;101306.16;6296079;28;19921;-75
2024/01/09 09:49:27;;;;;;;;;;;;;;;-1.11;43.07;101308.19;6296734;28;19920;-75
2024/01/09 09:52:27;;;;;;;;;;;;;;;-1.09;41.84;101313.28;6295891;28;19920;-75
2024/01/09 09:55:28;;;;;;;;;;;;;;;-0.89;41.39;101309.16;6296683;28;19927;-75
2024/01/09 09:58:30;;;;;;;;;;;;;;;-0.63;41.52;101308.47;6295577;28;20015;-75
2024/01/09 10:01:34;;;;;;;;;;;;;;;-0.62;40.78;101297.34;6295266;28;19942;-74
2024/01/09 10:04:35;;;;;;;;;;;;;;;-0.71;40.53;101305.84;6296641;28;20368;-75
2024/01/09 10:07:38;;;;;;;;;;;;;;;-0.57;41.51;101300.81;6296470;28;19928;-75
2024/01/09 10:10:38;;;;;;;;;;;;;;;-0.64;40.88;101296.47;6296668;28;19920;-75
2024/01/09 10:13:39;;;;;;;;;;;;;;;-0.56;41.38;101306.78;6295577;28;19974;-75
2024/01/09 10:16:50;;;;;;;;;;;;;;;-0.63;41.05;101301.63;6296442;28;20182;-74
2024/01/09 10:19:51;;;;;;;;;;;;;;;-0.35;40.88;101299.19;6295099;28;19967;-75
2024/01/09 10:22:52;;;;;;;;;;;;;;;-0.08;40.29;101303.56;6296324;28;20018;-75
2024/01/09 10:25:54;;;;;;;;;;;;;;;-0.24;40.17;101307.78;6296535;28;20029;-75
2024/01/09 10:28:57;;;;;;;;;;;;;;;-0.06;39.94;101301.00;6296117;28;20360;-74
2024/01/09 10:31:58;;;;;;;;;;;;;;;0.05;39.16;101293.31;6296519;28;19924;-75
2024/01/09 10:34:59;;;;;;;;;;;;;;;0.48;40.02;101288.25;6328828;28;19977;-74
2024/01/09 10:38:00;;;;;;;;;;;;;;;0.39;39.45;101283.94;6296413;28;19924;-74
2024/01/09 10:41:13;;;;;;;;;;;;;;;0.27;39.55;101289.94;6295972;28;19954;-75
2024/01/09 10:44:14;;;;;;;;;;;;;;;0.09;39.20;101277.06;6296162;28;20445;-74
2024/01/09 10:47:15;;;;;;;;;;;;;;;0.45;40.01;101283.94;6294793;28;19920;-70
2024/01/09 10:50:16;;;;;;;;;;;;;;;0.61;38.59;101279.66;6296197;28;19927;-70
2024/01/09 10:53:19;;;;;;;;;;;;;;;0.58;39.66;101288.22;6296498;28;20003;-70
2024/01/09 10:56:23;;;;;;;;;;;;;;;0.76;38.41;101279.66;6296054;28;20311;-70
2024/01/09 10:59:25;;;;;;;;;;;;;;;0.86;39.15;101289.91;6294576;28;19920;-70
2024/01/09 11:02:26;;;;;;;;;;;;;;;0.66;38.43;101288.25;6295708;28;19927;-70
2024/01/09 11:05:27;;;;;;;;;;;;;;;1.06;38.97;101290.75;6295960;28;19920;-70
2024/01/09 11:08:31;;;;;;;;;;;;;;;1.10;38.33;101282.16;6295783;28;19928;-70
2024/01/09 11:11:33;;;;;;;;;;;;;;;1.14;38.40;101270.16;6294736;28;20039;-70
2024/01/09 11:14:35;;;;;;;;;;;;;;;1.19;37.69;101274.44;6295801;28;19968;-70
2024/01/09 11:17:37;;;;;;;;;;;;;;;1.60;37.92;101282.84;6295629;28;19927;-70
2024/01/09 11:20:38;;;;;;;;;;;;;;;1.30;37.54;101276.13;6295363;28;19920;-70
2024/01/09 11:23:55;;;;;;;;;;;;;;;1.56;37.27;101282.00;6297315;28;20292;-70
2024/01/09 11:27:12;;;;;;;;;;;;;;;1.89;37.53;101280.13;6300733;28;19920;-70
2024/01/09 11:30:15;;;;;;;;;;;;;;;2.04;37.67;101286.06;6300306;28;20058;-69
2024/01/09 11:33:27;;;;;;;;;;;;;;;1.89;38.01;101281.84;6299003;28;19920;-73
2024/01/09 11:36:28;;;;;;;;;;;;;;;1.65;37.23;101285.41;6300035;28;20081;-74
2024/01/09 11:39:29;;;;;;;;;;;;;;;1.88;37.38;101286.16;6299055;28;20369;-74
2024/01/09 11:42:30;;;;;;;;;;;;;;;1.92;37.01;101290.44;6300120;28;19920;-75
2024/01/09 11:45:32;;;;;;;;;;;;;;;1.83;36.99;101287.88;6332393;28;19921;-75
2024/01/09 11:48:33;;;;;;;;;;;;;;;2.08;37.64;101298.91;6298804;28;19920;-75
2024/01/09 11:51:34;;;;;;;;;;;;;;;2.31;36.29;101298.75;6298465;28;19932;-74
2024/01/09 11:54:35;;;;;;;;;;;;;;;2.35;36.36;101315.06;6298357;28;20015;-75
2024/01/09 11:57:36;;;;;;;;;;;;;;;2.60;37.63;101308.00;6299679;28;19920;-75
2024/01/09 12:00:38;;;;;;;;;;;;;;;2.80;37.08;101302.66;6298162;28;19920;-73
2024/01/09 12:03:38;;;;;;;;;;;;;;;2.67;36.80;101307.06;6299174;28;20398;-74
2024/01/09 12:06:39;;;;;;;;;;;;;;;2.35;36.76;101315.06;6298331;28;19925;-74
2024/01/09 12:09:40;;;;;;;;;;;;;;;2.56;36.28;101307.16;6297994;28;19924;-74
2024/01/09 12:12:41;;;;;;;;;;;;;;;2.70;36.45;101307.06;6299077;28;20345;-74
2024/01/09 12:15:42;;;;;;;;;;;;;;;2.40;36.87;101300.41;6298090;28;19935;-69
2024/01/09 12:18:50;;;;;;;;;;;;;;;2.28;36.30;101298.78;6298833;28;19924;-70
2024/01/09 12:21:54;;;;;;;;;;;;;;;2.23;37.07;101297.97;6297897;28;19920;-69
2024/01/09 12:24:55;;;;;;;;;;;;;;;2.41;37.52;101292.69;6297718;28;19924;-70
2024/01/09 12:27:56;;;;;;;;;;;;;;;2.58;37.92;101302.00;6299041;28;20007;-69
2024/01/09 12:31:01;;;;;;;;;;;;;;;2.15;37.48;101304.88;6298799;28;19974;-70
2024/01/09 12:34:03;;;;;;;;;;;;;;;2.38;38.47;101318.44;6298500;28;19963;-75
2024/01/09 12:37:08;;;;;;;;;;;;;;;2.20;37.74;101316.00;6298313;28;19924;-74
2024/01/09 12:40:14;;;;;;;;;;;;;;;2.19;37.17;101314.31;6298289;28;20044;-74
2024/01/09 12:43:16;;;;;;;;;;;;;;;2.27;38.10;101327.97;6298523;28;19920;-75
2024/01/09 12:46:16;;;;;;;;;;;;;;;2.51;37.08;101324.38;6297083;28;19967;-75
2024/01/09 12:49:17;;;;;;;;;;;;;;;2.36;37.52;101320.19;6298438;28;19921;-75
2024/01/09 12:52:20;;;;;;;;;;;;;;;2.55;37.20;101326.06;6296751;28;19924;-75
2024/01/09 12:55:20;;;;;;;;;;;;;;;2.08;37.65;101324.66;6298167;28;20291;-75
2024/01/09 12:58:21;;;;;;;;;;;;;;;2.41;38.60;101335.63;6330617;28;19920;-75
2024/01/09 13:01:25;;;;;;;;;;;;;;;2.38;38.42;101333.91;6297929;28;19943;-75
2024/01/09 13:04:26;;;;;;;;;;;;;;;2.27;38.50;101322.81;6298022;28;19920;-75
2024/01/09 13:07:27;;;;;;;;;;;;;;;1.93;38.88;101319.59;6298033;28;19921;-74
2024/01/09 13:10:28;;;;;;;;;;;;;;;2.07;39.13;101332.38;6297662;28;19920;-74
2024/01/09 13:13:30;;;;;;;;;;;;;;;2.18;39.26;101328.91;6296496;28;19935;-75
2024/01/09 13:16:31;;;;;;;;;;;;;;;2.04;38.82;101327.25;6296582;28;19927;-75
2024/01/09 13:19:32;;;;;;;;;;;;;;;2.20;38.82;101334.91;6296217;28;19963;-74
2024/01/09 13:22:33;;;;;;;;;;;;;;;1.90;38.84;101337.63;6296403;28;19924;-74
2024/01/09 13:25:34;;;;;;;;;;;;;;;2.11;39.41;101342.66;6297564;28;19924;-75
2024/01/09 13:28:34;;;;;;;;;;;;;;;1.95;39.42;101349.59;6297623;28;19927;-75
2024/01/09 13:31:36;;;;;;;;;;;;;;;2.04;38.96;101350.41;6297663;28;19989;-74
2024/01/09 13:34:36;;;;;;;;;;;;;;;1.93;39.41;101358.19;6297258;28;19920;-75
2024/01/09 13:37:37;;;;;;;;;;;;;;;1.98;39.43;101367.63;6297428;28;20390;-74
2024/01/09 13:40:38;;;;;;;;;;;;;;;2.04;39.53;101364.16;6296854;28;19924;-75
2024/01/09 13:43:48;;;;;;;;;;;;;;;2.07;40.88;101369.28;6297055;28;19973;-75
2024/01/09 13:46:49;;;;;;;;;;;;;;;1.77;39.60;101375.41;6295522;28;20312;-75
2024/01/09 13:49:49;;;;;;;;;;;;;;;1.84;40.31;101378.84;6296952;28;19920;-75
2024/01/09 13:52:51;;;;;;;;;;;;;;;1.72;39.56;101383.16;6297004;28;20372;-75
2024/01/09 13:55:52;;;;;;;;;;;;;;;1.63;40.50;101379.75;6297029;28;19921;-75
2024/01/09 13:58:54;;;;;;;;;;;;;;;1.32;40.60;101384.97;6295621;28;19927;-74
2024/01/09 14:01:54;;;;;;;;;;;;;;;1.28;40.73;101380.72;6295473;28;19924;-75
2024/01/09 14:04:55;;;;;;;;;;;;;;;1.36;40.40;101384.97;6295538;28;19944;-75
2024/01/09 14:07:56;;;;;;;;;;;;;;;1.08;41.14;101385.88;6295669;28;20269;-75
2024/01/09 14:10:56;;;;;;;;;;;;;;;0.87;40.75;101387.56;6295330;28;19975;-75
2024/01/09 14:13:57;;;;;;;;;;;;;;;1.08;41.86;101385.88;6295145;28;20372;-70
2024/01/09 14:16:58;;;;;;;;;;;;;;;1.11;42.06;101385.84;6329136;28;19921;-75
2024/01/09 14:20:02;;;;;;;;;;;;;;;0.75;41.73;101385.00;6295179;28;19920;-74
2024/01/09 14:23:03;;;;;;;;;;;;;;;0.78;42.00;101392.69;6296281;28;20454;-75
2024/01/09 14:26:04;;;;;;;;;;;;;;;0.78;42.28;101390.13;6296510;28;19921;-74
2024/01/09 14:29:05;;;;;;;;;;;;;;;0.53;42.78;101392.66;6296209;28;19928;-75
2024/01/09 14:32:06;;;;;;;;;;;;;;;0.63;42.44;101396.13;6295140;28;19920;-75
2024/01/09 14:35:07;;;;;;;;;;;;;;;0.39;42.51;101402.06;6296560;28;19982;-75
2024/01/09 14:38:07;;;;;;;;;;;;;;;0.53;43.22;101412.38;6296202;28;19920;-74
2024/01/09 14:41:10;;;;;;;;;;;;;;;0.52;42.85;101408.94;6295984;28;19921;-75
2024/01/09 14:44:10;;;;;;;;;;;;;;;0.44;43.47;101417.50;6287031;28;19959;-75
2024/01/09 14:47:11;;;;;;;;;;;;;;;0.36;43.71;101417.47;6279999;28;19928;-75
2024/01/09 14:50:12;;;;;;;;;;;;;;;0.17;43.64;101417.41;6289169;28;19920;-75
2024/01/09 14:53:13;;;;;;;;;;;;;;;0.24;44.85;101417.44;6296146;28;20009;-75
2024/01/09 14:56:18;;;;;;;;;;;;;;;0.19;44.08;101409.72;6309424;28;19947;-75
2024/01/09 14:59:21;;;;;;;;;;;;;;;0.15;43.98;101413.97;6297606;28;20380;-75
2024/01/09 15:02:22;;;;;;;;;;;;;;;0.04;44.89;101418.19;6284630;28;19931;-75
2024/01/09 15:05:23;;;;;;;;;;;;;;;-0.09;44.33;101427.56;6276653;28;20014;-75
2024/01/09 15:08:26;;;;;;;;;;;;;;;-0.19;44.54;101423.22;6283372;28;19921;-75
2024/01/09 15:11:27;;;;;;;;;;;;;;;-0.25;44.11;101424.06;6288029;28;20034;-75
2024/01/09 15:14:28;;;;;;;;;;;;;;;-0.23;45.04;101427.50;6299485;28;20477;-75
2024/01/09 15:17:29;;;;;;;;;;;;;;;-0.37;45.41;101430.81;6288207;28;20032;-75
2024/01/09 15:20:30;;;;;;;;;;;;;;;-0.34;45.11;101431.69;6274327;28;19921;-75
2024/01/09 15:23:31;;;;;;;;;;;;;;;-0.52;46.83;101429.88;6283785;28;20332;-75
2024/01/09 15:26:31;;;;;;;;;;;;;;;-0.62;46.35;101431.53;6289476;28;20319;-74
2024/01/09 15:29:32;;;;;;;;;;;;;;;-0.64;46.99;101432.34;6299136;28;20379;-75
2024/01/09 15:32:34;;;;;;;;;;;;;;;-0.64;47.97;101424.66;6299015;28;19927;-75
2024/01/09 15:35:35;;;;;;;;;;;;;;;-0.83;47.68;101436.47;6299309;28;19924;-70